sensor_id;sensor_type;location;lat;lon;timestamp;temperature;humidity
15554;DHT22;7878;44.632;10.942;2022-11-15T00:00:09;12.40;99.90
15554;DHT22;7878;44.632;10.942;2022-11-15T00:02:35;12.40;99.90
15554;DHT22;7878;44.632;10.942;2022-11-15T00:05:01;12.40;99.90
15554;DHT22;7878;44.632;10.942;2022-11-15T00:07:27;12.30;99.90
15554;DHT22;7878;44.632;10.942;2022-11-15T00:09:52;12.30;99.90
15554;DHT22;7878;44.632;10.942;2022-11-15T00:12:18;12.30;99.90
15554;DHT22;7878;44.632;10.942;2022-11-15T00:14:43;12.40;99.90
15554;DHT22;7878;44.632;10.942;2022-11-15T00:17:09;12.30;99.90
15554;DHT22;7878;44.632;10.942;2022-11-15T00:19:35;12.30;99.90
15554;DHT22;7878;44.632;10.942;2022-11-15T00:22:00;12.30;99.90
15554;DHT22;7878;44.632;10.942;2022-11-15T00:24:26;12.30;99.90
15554;DHT22;7878;44.632;10.942;2022-11-15T00:26:51;12.30;99.90
15554;DHT22;7878;44.632;10.942;2022-11-15T00:29:17;12.30;99.90
15554;DHT22;7878;44.632;10.942;2022-11-15T00:31:43;12.30;99.90
15554;DHT22;7878;44.632;10.942;2022-11-15T00:34:10;12.30;99.90
15554;DHT22;7878;44.632;10.942;2022-11-15T00:36:36;12.30;99.90
15554;DHT22;7878;44.632;10.942;2022-11-15T00:39:04;12.20;99.90
15554;DHT22;7878;44.632;10.942;2022-11-15T00:41:30;12.20;99.90
15554;DHT22;7878;44.632;10.942;2022-11-15T00:43:56;12.10;99.90
15554;DHT22;7878;44.632;10.942;2022-11-15T00:46:22;12.20;99.90
15554;DHT22;7878;44.632;10.942;2022-11-15T00:48:47;12.20;99.90
15554;DHT22;7878;44.632;10.942;2022-11-15T00:51:13;12.10;99.90
15554;DHT22;7878;44.632;10.942;2022-11-15T00:53:39;12.10;99.90
15554;DHT22;7878;44.632;10.942;2022-11-15T00:56:05;12.10;99.90
15554;DHT22;7878;44.632;10.942;2022-11-15T00:58:31;12.10;99.90
15554;DHT22;7878;44.632;10.942;2022-11-15T01:01:11;12.10;99.90
15554;DHT22;7878;44.632;10.942;2022-11-15T01:03:38;12.10;99.90
15554;DHT22;7878;44.632;10.942;2022-11-15T01:06:05;12.10;99.90
15554;DHT22;7878;44.632;10.942;2022-11-15T01:08:31;12.10;99.90
15554;DHT22;7878;44.632;10.942;2022-11-15T01:11:05;12.10;99.90
15554;DHT22;7878;44.632;10.942;2022-11-15T01:13:33;12.00;99.90
15554;DHT22;7878;44.632;10.942;2022-11-15T01:16:05;12.00;99.90
15554;DHT22;7878;44.632;10.942;2022-11-15T01:18:30;12.00;99.90
15554;DHT22;7878;44.632;10.942;2022-11-15T01:20:56;12.00;99.90
15554;DHT22;7878;44.632;10.942;2022-11-15T01:23:22;12.00;99.90
15554;DHT22;7878;44.632;10.942;2022-11-15T01:25:47;12.00;99.90
15554;DHT22;7878;44.632;10.942;2022-11-15T01:28:13;12.00;99.90
15554;DHT22;7878;44.632;10.942;2022-11-15T01:30:39;12.00;99.90
15554;DHT22;7878;44.632;10.942;2022-11-15T01:33:04;12.00;99.90
15554;DHT22;7878;44.632;10.942;2022-11-15T01:35:30;12.00;99.90
15554;DHT22;7878;44.632;10.942;2022-11-15T01:37:55;12.00;99.90
15554;DHT22;7878;44.632;10.942;2022-11-15T01:40:21;12.00;99.90
15554;DHT22;7878;44.632;10.942;2022-11-15T01:42:47;12.00;99.90
15554;DHT22;7878;44.632;10.942;2022-11-15T01:45:14;12.00;99.90
15554;DHT22;7878;44.632;10.942;2022-11-15T01:47:46;12.00;99.90
15554;DHT22;7878;44.632;10.942;2022-11-15T01:50:17;12.00;99.90
15554;DHT22;7878;44.632;10.942;2022-11-15T01:52:44;11.90;99.90
15554;DHT22;7878;44.632;10.942;2022-11-15T01:55:19;12.00;99.90
15554;DHT22;7878;44.632;10.942;2022-11-15T01:57:47;12.00;99.90
15554;DHT22;7878;44.632;10.942;2022-11-15T02:00:16;12.00;99.90
15554;DHT22;7878;44.632;10.942;2022-11-15T02:02:42;11.90;99.90
15554;DHT22;7878;44.632;10.942;2022-11-15T02:05:08;11.90;99.90
15554;DHT22;7878;44.632;10.942;2022-11-15T02:07:35;11.90;99.90
15554;DHT22;7878;44.632;10.942;2022-11-15T02:10:17;11.90;99.90
15554;DHT22;7878;44.632;10.942;2022-11-15T02:12:43;11.80;99.90
15554;DHT22;7878;44.632;10.942;2022-11-15T02:15:11;11.80;99.90
15554;DHT22;7878;44.632;10.942;2022-11-15T02:20:44;11.80;99.90
15554;DHT22;7878;44.632;10.942;2022-11-15T02:37:52;11.70;99.90
15554;DHT22;7878;44.632;10.942;2022-11-15T02:40:47;11.70;99.90
15554;DHT22;7878;44.632;10.942;2022-11-15T02:42:56;11.70;99.90
15554;DHT22;7878;44.632;10.942;2022-11-15T02:45:50;11.70;99.90
15554;DHT22;7878;44.632;10.942;2022-11-15T02:48:17;11.70;99.90
15554;DHT22;7878;44.632;10.942;2022-11-15T02:50:44;11.70;99.90
15554;DHT22;7878;44.632;10.942;2022-11-15T02:53:10;11.70;99.90
15554;DHT22;7878;44.632;10.942;2022-11-15T02:55:38;11.70;99.90
15554;DHT22;7878;44.632;10.942;2022-11-15T03:01:16;11.60;99.90
15554;DHT22;7878;44.632;10.942;2022-11-15T03:03:56;11.50;99.90
15554;DHT22;7878;44.632;10.942;2022-11-15T03:12:44;11.50;99.90
15554;DHT22;7878;44.632;10.942;2022-11-15T03:15:27;11.50;99.90
15554;DHT22;7878;44.632;10.942;2022-11-15T03:18:19;11.50;99.90
15554;DHT22;7878;44.632;10.942;2022-11-15T03:20:48;11.50;99.90
15554;DHT22;7878;44.632;10.942;2022-11-15T03:23:14;11.50;99.90
15554;DHT22;7878;44.632;10.942;2022-11-15T03:25:47;11.50;99.90
15554;DHT22;7878;44.632;10.942;2022-11-15T03:28:20;11.50;99.90
15554;DHT22;7878;44.632;10.942;2022-11-15T03:30:48;11.50;99.90
15554;DHT22;7878;44.632;10.942;2022-11-15T03:33:15;11.40;99.90
15554;DHT22;7878;44.632;10.942;2022-11-15T03:35:44;11.40;99.90
15554;DHT22;7878;44.632;10.942;2022-11-15T03:38:25;11.50;99.90
15554;DHT22;7878;44.632;10.942;2022-11-15T03:40:57;11.40;99.90
15554;DHT22;7878;44.632;10.942;2022-11-15T03:44:10;11.40;99.90
15554;DHT22;7878;44.632;10.942;2022-11-15T03:46:47;11.40;99.90
15554;DHT22;7878;44.632;10.942;2022-11-15T03:49:28;11.40;99.90
15554;DHT22;7878;44.632;10.942;2022-11-15T03:51:57;11.40;99.90
15554;DHT22;7878;44.632;10.942;2022-11-15T03:54:23;11.50;99.90
15554;DHT22;7878;44.632;10.942;2022-11-15T03:56:49;11.50;99.90
15554;DHT22;7878;44.632;10.942;2022-11-15T03:59:15;11.40;99.90
15554;DHT22;7878;44.632;10.942;2022-11-15T04:01:40;11.40;99.90
15554;DHT22;7878;44.632;10.942;2022-11-15T04:04:06;11.40;99.90
15554;DHT22;7878;44.632;10.942;2022-11-15T04:06:31;11.40;99.90
15554;DHT22;7878;44.632;10.942;2022-11-15T04:08:57;11.40;99.90
15554;DHT22;7878;44.632;10.942;2022-11-15T04:11:23;11.40;99.90
15554;DHT22;7878;44.632;10.942;2022-11-15T04:13:48;11.40;99.90
15554;DHT22;7878;44.632;10.942;2022-11-15T04:16:14;11.40;99.90
15554;DHT22;7878;44.632;10.942;2022-11-15T04:18:40;11.40;99.90
15554;DHT22;7878;44.632;10.942;2022-11-15T04:21:05;11.40;99.90
15554;DHT22;7878;44.632;10.942;2022-11-15T04:23:49;11.40;99.90
15554;DHT22;7878;44.632;10.942;2022-11-15T04:26:34;11.40;99.90
15554;DHT22;7878;44.632;10.942;2022-11-15T04:28:59;11.40;99.90
15554;DHT22;7878;44.632;10.942;2022-11-15T04:31:43;11.40;99.90
15554;DHT22;7878;44.632;10.942;2022-11-15T04:34:09;11.50;99.90
15554;DHT22;7878;44.632;10.942;2022-11-15T04:36:35;11.50;99.90
15554;DHT22;7878;44.632;10.942;2022-11-15T04:39:19;11.50;99.90
15554;DHT22;7878;44.632;10.942;2022-11-15T04:41:44;11.50;99.90
15554;DHT22;7878;44.632;10.942;2022-11-15T04:44:10;11.50;99.90
15554;DHT22;7878;44.632;10.942;2022-11-15T04:46:35;11.50;99.90
15554;DHT22;7878;44.632;10.942;2022-11-15T04:49:01;11.50;99.90
15554;DHT22;7878;44.632;10.942;2022-11-15T04:51:27;11.50;99.90
15554;DHT22;7878;44.632;10.942;2022-11-15T04:53:52;11.50;99.90
15554;DHT22;7878;44.632;10.942;2022-11-15T04:56:18;11.50;99.90
15554;DHT22;7878;44.632;10.942;2022-11-15T04:58:44;11.50;99.90
15554;DHT22;7878;44.632;10.942;2022-11-15T05:01:12;11.50;99.90
15554;DHT22;7878;44.632;10.942;2022-11-15T05:03:40;11.60;99.90
15554;DHT22;7878;44.632;10.942;2022-11-15T05:06:24;11.60;99.90
15554;DHT22;7878;44.632;10.942;2022-11-15T05:08:50;11.70;99.90
15554;DHT22;7878;44.632;10.942;2022-11-15T05:11:16;11.70;99.90
15554;DHT22;7878;44.632;10.942;2022-11-15T05:13:41;11.80;99.90
15554;DHT22;7878;44.632;10.942;2022-11-15T05:16:07;11.80;99.90
15554;DHT22;7878;44.632;10.942;2022-11-15T05:18:33;11.80;99.90
15554;DHT22;7878;44.632;10.942;2022-11-15T05:21:05;11.90;99.90
15554;DHT22;7878;44.632;10.942;2022-11-15T05:23:31;11.90;99.90
15554;DHT22;7878;44.632;10.942;2022-11-15T05:26:03;12.00;99.90
15554;DHT22;7878;44.632;10.942;2022-11-15T05:28:30;12.00;99.90
15554;DHT22;7878;44.632;10.942;2022-11-15T05:33:32;12.10;99.90
15554;DHT22;7878;44.632;10.942;2022-11-15T05:38:47;12.10;99.90
15554;DHT22;7878;44.632;10.942;2022-11-15T05:41:14;12.10;99.90
15554;DHT22;7878;44.632;10.942;2022-11-15T05:43:41;12.10;99.90
15554;DHT22;7878;44.632;10.942;2022-11-15T05:46:07;12.10;99.90
15554;DHT22;7878;44.632;10.942;2022-11-15T05:48:34;12.10;99.90
15554;DHT22;7878;44.632;10.942;2022-11-15T05:51:02;12.10;99.90
15554;DHT22;7878;44.632;10.942;2022-11-15T05:53:29;12.10;99.90
15554;DHT22;7878;44.632;10.942;2022-11-15T05:55:55;12.10;99.90
15554;DHT22;7878;44.632;10.942;2022-11-15T05:58:21;12.10;99.90
15554;DHT22;7878;44.632;10.942;2022-11-15T06:00:47;12.10;99.90
15554;DHT22;7878;44.632;10.942;2022-11-15T06:03:13;12.10;99.90
15554;DHT22;7878;44.632;10.942;2022-11-15T06:05:40;12.10;99.90
15554;DHT22;7878;44.632;10.942;2022-11-15T06:08:05;12.00;99.90
15554;DHT22;7878;44.632;10.942;2022-11-15T06:10:32;12.00;99.90
15554;DHT22;7878;44.632;10.942;2022-11-15T06:13:03;12.00;99.90
15554;DHT22;7878;44.632;10.942;2022-11-15T06:15:29;12.00;99.90
15554;DHT22;7878;44.632;10.942;2022-11-15T06:17:58;12.00;99.90
15554;DHT22;7878;44.632;10.942;2022-11-15T06:20:25;11.90;99.90
15554;DHT22;7878;44.632;10.942;2022-11-15T06:22:51;11.90;99.90
15554;DHT22;7878;44.632;10.942;2022-11-15T06:25:21;11.90;99.90
15554;DHT22;7878;44.632;10.942;2022-11-15T06:27:54;11.90;99.90
15554;DHT22;7878;44.632;10.942;2022-11-15T06:30:20;11.90;99.90
15554;DHT22;7878;44.632;10.942;2022-11-15T06:32:46;11.90;99.90
15554;DHT22;7878;44.632;10.942;2022-11-15T06:35:12;11.90;99.90
15554;DHT22;7878;44.632;10.942;2022-11-15T06:37:38;12.00;99.90
15554;DHT22;7878;44.632;10.942;2022-11-15T06:40:04;12.00;99.90
15554;DHT22;7878;44.632;10.942;2022-11-15T06:42:30;12.00;99.90
15554;DHT22;7878;44.632;10.942;2022-11-15T06:44:56;12.00;99.90
15554;DHT22;7878;44.632;10.942;2022-11-15T06:47:22;12.00;99.90
15554;DHT22;7878;44.632;10.942;2022-11-15T06:49:47;12.00;99.90
15554;DHT22;7878;44.632;10.942;2022-11-15T06:52:13;12.10;99.90
15554;DHT22;7878;44.632;10.942;2022-11-15T06:54:38;12.10;99.90
15554;DHT22;7878;44.632;10.942;2022-11-15T06:57:04;12.10;99.90
15554;DHT22;7878;44.632;10.942;2022-11-15T06:59:30;12.00;99.90
15554;DHT22;7878;44.632;10.942;2022-11-15T07:01:56;12.00;99.90
15554;DHT22;7878;44.632;10.942;2022-11-15T07:04:21;12.00;99.90
15554;DHT22;7878;44.632;10.942;2022-11-15T07:06:48;12.00;99.90
15554;DHT22;7878;44.632;10.942;2022-11-15T07:09:14;12.00;99.90
15554;DHT22;7878;44.632;10.942;2022-11-15T07:11:40;12.00;99.90
15554;DHT22;7878;44.632;10.942;2022-11-15T07:14:05;12.00;99.90
15554;DHT22;7878;44.632;10.942;2022-11-15T07:16:31;12.00;99.90
15554;DHT22;7878;44.632;10.942;2022-11-15T07:18:56;12.10;99.90
15554;DHT22;7878;44.632;10.942;2022-11-15T07:21:22;12.20;99.90
15554;DHT22;7878;44.632;10.942;2022-11-15T07:23:48;12.20;99.90
15554;DHT22;7878;44.632;10.942;2022-11-15T07:26:14;12.20;99.90
15554;DHT22;7878;44.632;10.942;2022-11-15T07:28:39;12.20;99.90
15554;DHT22;7878;44.632;10.942;2022-11-15T07:31:07;12.30;99.90
15554;DHT22;7878;44.632;10.942;2022-11-15T07:33:33;12.30;99.90
15554;DHT22;7878;44.632;10.942;2022-11-15T07:36:05;12.30;99.90
15554;DHT22;7878;44.632;10.942;2022-11-15T07:38:32;12.30;99.90
15554;DHT22;7878;44.632;10.942;2022-11-15T07:40:59;12.30;99.90
15554;DHT22;7878;44.632;10.942;2022-11-15T07:43:25;12.30;99.90
15554;DHT22;7878;44.632;10.942;2022-11-15T07:45:53;12.30;99.90
15554;DHT22;7878;44.632;10.942;2022-11-15T07:48:19;12.30;99.90
15554;DHT22;7878;44.632;10.942;2022-11-15T07:50:44;12.30;99.90
15554;DHT22;7878;44.632;10.942;2022-11-15T07:53:10;12.40;99.90
15554;DHT22;7878;44.632;10.942;2022-11-15T07:55:37;12.30;99.90
15554;DHT22;7878;44.632;10.942;2022-11-15T07:58:03;12.40;99.90
15554;DHT22;7878;44.632;10.942;2022-11-15T08:00:29;12.50;99.90
15554;DHT22;7878;44.632;10.942;2022-11-15T08:03:09;12.90;99.90
15554;DHT22;7878;44.632;10.942;2022-11-15T08:05:37;13.00;99.90
15554;DHT22;7878;44.632;10.942;2022-11-15T08:08:04;12.90;99.90
15554;DHT22;7878;44.632;10.942;2022-11-15T08:10:29;12.60;99.90
15554;DHT22;7878;44.632;10.942;2022-11-15T08:13:05;12.50;99.90
15554;DHT22;7878;44.632;10.942;2022-11-15T08:15:31;12.40;99.90
15554;DHT22;7878;44.632;10.942;2022-11-15T08:18:00;12.30;99.90
15554;DHT22;7878;44.632;10.942;2022-11-15T08:20:27;12.30;99.90
15554;DHT22;7878;44.632;10.942;2022-11-15T08:23:00;12.30;99.90
15554;DHT22;7878;44.632;10.942;2022-11-15T08:25:27;12.40;99.90
15554;DHT22;7878;44.632;10.942;2022-11-15T08:27:54;12.40;99.90
15554;DHT22;7878;44.632;10.942;2022-11-15T08:30:20;12.40;99.90
15554;DHT22;7878;44.632;10.942;2022-11-15T08:32:46;12.40;99.90
15554;DHT22;7878;44.632;10.942;2022-11-15T08:35:12;12.30;99.90
15554;DHT22;7878;44.632;10.942;2022-11-15T08:37:38;12.40;99.90
15554;DHT22;7878;44.632;10.942;2022-11-15T08:40:04;12.40;99.90
15554;DHT22;7878;44.632;10.942;2022-11-15T08:42:30;12.40;99.90
15554;DHT22;7878;44.632;10.942;2022-11-15T08:44:56;12.40;99.90
15554;DHT22;7878;44.632;10.942;2022-11-15T08:47:22;12.50;99.90
15554;DHT22;7878;44.632;10.942;2022-11-15T08:49:48;12.60;99.90
15554;DHT22;7878;44.632;10.942;2022-11-15T08:52:14;12.60;99.90
15554;DHT22;7878;44.632;10.942;2022-11-15T08:54:39;12.60;99.90
15554;DHT22;7878;44.632;10.942;2022-11-15T08:57:05;12.60;99.90
15554;DHT22;7878;44.632;10.942;2022-11-15T08:59:31;12.60;99.90
15554;DHT22;7878;44.632;10.942;2022-11-15T09:01:57;12.60;99.90
15554;DHT22;7878;44.632;10.942;2022-11-15T09:04:22;12.70;99.90
15554;DHT22;7878;44.632;10.942;2022-11-15T09:06:48;12.70;99.90
15554;DHT22;7878;44.632;10.942;2022-11-15T09:09:14;12.70;99.90
15554;DHT22;7878;44.632;10.942;2022-11-15T09:11:40;12.70;99.90
15554;DHT22;7878;44.632;10.942;2022-11-15T09:14:05;12.70;99.90
15554;DHT22;7878;44.632;10.942;2022-11-15T09:16:31;12.70;99.90
15554;DHT22;7878;44.632;10.942;2022-11-15T09:18:57;12.80;99.90
15554;DHT22;7878;44.632;10.942;2022-11-15T09:21:22;12.80;99.90
15554;DHT22;7878;44.632;10.942;2022-11-15T09:23:52;12.80;99.90
15554;DHT22;7878;44.632;10.942;2022-11-15T09:26:18;12.90;99.90
15554;DHT22;7878;44.632;10.942;2022-11-15T09:28:44;12.90;99.90
15554;DHT22;7878;44.632;10.942;2022-11-15T09:31:09;13.00;99.90
15554;DHT22;7878;44.632;10.942;2022-11-15T09:33:36;13.00;99.90
15554;DHT22;7878;44.632;10.942;2022-11-15T09:36:06;13.10;99.90
15554;DHT22;7878;44.632;10.942;2022-11-15T09:38:33;13.20;99.90
15554;DHT22;7878;44.632;10.942;2022-11-15T09:44:00;13.30;99.90
15554;DHT22;7878;44.632;10.942;2022-11-15T09:49:17;13.40;99.90
15554;DHT22;7878;44.632;10.942;2022-11-15T09:51:49;13.50;99.90
15554;DHT22;7878;44.632;10.942;2022-11-15T09:56:50;13.40;99.90
15554;DHT22;7878;44.632;10.942;2022-11-15T09:59:34;13.40;99.90
15554;DHT22;7878;44.632;10.942;2022-11-15T10:04:33;13.40;99.90
15554;DHT22;7878;44.632;10.942;2022-11-15T10:10:03;13.50;99.90
15554;DHT22;7878;44.632;10.942;2022-11-15T10:12:30;13.50;99.90
15554;DHT22;7878;44.632;10.942;2022-11-15T10:15:08;13.50;99.90
15554;DHT22;7878;44.632;10.942;2022-11-15T10:18:00;13.50;99.90
15554;DHT22;7878;44.632;10.942;2022-11-15T10:20:30;13.60;99.90
15554;DHT22;7878;44.632;10.942;2022-11-15T10:23:05;13.60;99.90
15554;DHT22;7878;44.632;10.942;2022-11-15T10:25:33;13.50;99.90
15554;DHT22;7878;44.632;10.942;2022-11-15T10:27:59;13.50;99.90
15554;DHT22;7878;44.632;10.942;2022-11-15T10:30:33;13.60;99.90
15554;DHT22;7878;44.632;10.942;2022-11-15T10:35:37;13.60;99.90
15554;DHT22;7878;44.632;10.942;2022-11-15T10:38:10;13.60;99.90
15554;DHT22;7878;44.632;10.942;2022-11-15T10:40:38;13.60;99.90
15554;DHT22;7878;44.632;10.942;2022-11-15T10:45:36;13.70;99.90
15554;DHT22;7878;44.632;10.942;2022-11-15T10:50:42;13.70;99.90
15554;DHT22;7878;44.632;10.942;2022-11-15T10:53:19;13.70;99.90
15554;DHT22;7878;44.632;10.942;2022-11-15T10:55:48;13.80;99.90
15554;DHT22;7878;44.632;10.942;2022-11-15T11:00:55;13.70;99.90
15554;DHT22;7878;44.632;10.942;2022-11-15T11:03:34;13.70;99.90
15554;DHT22;7878;44.632;10.942;2022-11-15T11:06:15;13.60;99.90
15554;DHT22;7878;44.632;10.942;2022-11-15T11:08:57;13.60;99.90
15554;DHT22;7878;44.632;10.942;2022-11-15T11:11:23;13.70;99.90
15554;DHT22;7878;44.632;10.942;2022-11-15T11:13:50;13.70;99.90
15554;DHT22;7878;44.632;10.942;2022-11-15T11:24:32;13.80;99.90
15554;DHT22;7878;44.632;10.942;2022-11-15T11:27:26;13.80;99.90
15554;DHT22;7878;44.632;10.942;2022-11-15T11:30:10;13.70;99.90
15554;DHT22;7878;44.632;10.942;2022-11-15T11:35:14;13.70;99.90
15554;DHT22;7878;44.632;10.942;2022-11-15T11:40:41;13.70;99.90
15554;DHT22;7878;44.632;10.942;2022-11-15T11:43:33;13.80;99.90
15554;DHT22;7878;44.632;10.942;2022-11-15T11:48:40;13.80;99.90
15554;DHT22;7878;44.632;10.942;2022-11-15T11:51:18;13.80;99.90
15554;DHT22;7878;44.632;10.942;2022-11-15T11:54:01;13.80;99.90
15554;DHT22;7878;44.632;10.942;2022-11-15T11:56:32;13.80;99.90
15554;DHT22;7878;44.632;10.942;2022-11-15T12:01:47;13.80;99.90
15554;DHT22;7878;44.632;10.942;2022-11-15T12:04:31;13.80;99.90
15554;DHT22;7878;44.632;10.942;2022-11-15T12:17:34;13.80;99.90
15554;DHT22;7878;44.632;10.942;2022-11-15T12:20:04;13.80;99.90
15554;DHT22;7878;44.632;10.942;2022-11-15T12:23:28;13.80;99.90
15554;DHT22;7878;44.632;10.942;2022-11-15T12:28:24;13.80;99.90
15554;DHT22;7878;44.632;10.942;2022-11-15T12:33:35;13.90;99.90
15554;DHT22;7878;44.632;10.942;2022-11-15T12:36:09;13.80;99.90
15554;DHT22;7878;44.632;10.942;2022-11-15T12:38:58;13.80;99.90
15554;DHT22;7878;44.632;10.942;2022-11-15T12:41:38;13.90;99.90
15554;DHT22;7878;44.632;10.942;2022-11-15T12:44:05;13.90;99.90
15554;DHT22;7878;44.632;10.942;2022-11-15T12:59:58;13.90;99.90
15554;DHT22;7878;44.632;10.942;2022-11-15T13:02:31;13.90;99.90
15554;DHT22;7878;44.632;10.942;2022-11-15T13:17:40;13.80;99.90
15554;DHT22;7878;44.632;10.942;2022-11-15T13:22:45;13.70;99.90
15554;DHT22;7878;44.632;10.942;2022-11-15T13:28:29;13.70;99.90
15554;DHT22;7878;44.632;10.942;2022-11-15T13:31:02;13.70;99.90
15554;DHT22;7878;44.632;10.942;2022-11-15T13:33:34;13.60;99.90
15554;DHT22;7878;44.632;10.942;2022-11-15T13:36:07;13.60;99.90
15554;DHT22;7878;44.632;10.942;2022-11-15T13:38:37;13.60;99.90
15554;DHT22;7878;44.632;10.942;2022-11-15T13:41:23;13.60;99.90
15554;DHT22;7878;44.632;10.942;2022-11-15T13:43:51;13.50;99.90
15554;DHT22;7878;44.632;10.942;2022-11-15T13:46:24;13.40;99.90
15554;DHT22;7878;44.632;10.942;2022-11-15T13:49:05;13.40;99.90
15554;DHT22;7878;44.632;10.942;2022-11-15T13:54:40;13.50;99.90
15554;DHT22;7878;44.632;10.942;2022-11-15T13:57:26;13.50;99.90
15554;DHT22;7878;44.632;10.942;2022-11-15T14:00:03;13.50;99.90
15554;DHT22;7878;44.632;10.942;2022-11-15T14:02:32;13.50;99.90
15554;DHT22;7878;44.632;10.942;2022-11-15T14:05:02;13.50;99.90
15554;DHT22;7878;44.632;10.942;2022-11-15T14:07:29;13.50;99.90
15554;DHT22;7878;44.632;10.942;2022-11-15T14:09:55;13.50;99.90
15554;DHT22;7878;44.632;10.942;2022-11-15T14:14:52;13.40;99.90
15554;DHT22;7878;44.632;10.942;2022-11-15T14:17:34;13.40;99.90
15554;DHT22;7878;44.632;10.942;2022-11-15T14:20:01;13.40;99.90
15554;DHT22;7878;44.632;10.942;2022-11-15T14:22:28;13.40;99.90
15554;DHT22;7878;44.632;10.942;2022-11-15T14:27:39;13.40;99.90
15554;DHT22;7878;44.632;10.942;2022-11-15T14:30:06;13.30;99.90
15554;DHT22;7878;44.632;10.942;2022-11-15T14:32:46;13.30;99.90
15554;DHT22;7878;44.632;10.942;2022-11-15T14:35:20;13.30;99.90
15554;DHT22;7878;44.632;10.942;2022-11-15T14:37:47;13.30;99.90
15554;DHT22;7878;44.632;10.942;2022-11-15T14:40:16;13.30;99.90
15554;DHT22;7878;44.632;10.942;2022-11-15T14:42:44;13.30;99.90
15554;DHT22;7878;44.632;10.942;2022-11-15T14:45:18;13.30;99.90
15554;DHT22;7878;44.632;10.942;2022-11-15T14:47:44;13.30;99.90
15554;DHT22;7878;44.632;10.942;2022-11-15T14:50:20;13.20;99.90
15554;DHT22;7878;44.632;10.942;2022-11-15T14:52:47;13.30;99.90
15554;DHT22;7878;44.632;10.942;2022-11-15T14:55:22;13.20;99.90
15554;DHT22;7878;44.632;10.942;2022-11-15T14:57:49;13.20;99.90
15554;DHT22;7878;44.632;10.942;2022-11-15T15:00:16;13.20;99.90
15554;DHT22;7878;44.632;10.942;2022-11-15T15:02:44;13.20;99.90
15554;DHT22;7878;44.632;10.942;2022-11-15T15:05:17;13.20;99.90
15554;DHT22;7878;44.632;10.942;2022-11-15T15:07:44;13.20;99.90
15554;DHT22;7878;44.632;10.942;2022-11-15T15:10:10;13.20;99.90
15554;DHT22;7878;44.632;10.942;2022-11-15T15:12:36;13.20;99.90
15554;DHT22;7878;44.632;10.942;2022-11-15T15:15:02;13.20;99.90
15554;DHT22;7878;44.632;10.942;2022-11-15T15:17:27;13.20;99.90
15554;DHT22;7878;44.632;10.942;2022-11-15T15:19:53;13.20;99.90
15554;DHT22;7878;44.632;10.942;2022-11-15T15:22:20;13.20;99.90
15554;DHT22;7878;44.632;10.942;2022-11-15T15:24:51;13.20;99.90
15554;DHT22;7878;44.632;10.942;2022-11-15T15:27:16;13.20;99.90
15554;DHT22;7878;44.632;10.942;2022-11-15T15:29:42;13.20;99.90
15554;DHT22;7878;44.632;10.942;2022-11-15T15:32:09;13.20;99.90
15554;DHT22;7878;44.632;10.942;2022-11-15T15:34:36;13.10;99.90
15554;DHT22;7878;44.632;10.942;2022-11-15T15:37:08;13.20;99.90
15554;DHT22;7878;44.632;10.942;2022-11-15T15:39:34;13.20;99.90
15554;DHT22;7878;44.632;10.942;2022-11-15T15:42:00;13.10;99.90
15554;DHT22;7878;44.632;10.942;2022-11-15T15:44:25;13.10;99.90
15554;DHT22;7878;44.632;10.942;2022-11-15T15:46:51;13.10;99.90
15554;DHT22;7878;44.632;10.942;2022-11-15T15:49:16;13.10;99.90
15554;DHT22;7878;44.632;10.942;2022-11-15T15:51:42;13.10;99.90
15554;DHT22;7878;44.632;10.942;2022-11-15T15:54:09;13.10;99.90
15554;DHT22;7878;44.632;10.942;2022-11-15T15:56:34;13.10;99.90
15554;DHT22;7878;44.632;10.942;2022-11-15T15:59:00;13.10;99.90
15554;DHT22;7878;44.632;10.942;2022-11-15T16:01:25;13.10;99.90
15554;DHT22;7878;44.632;10.942;2022-11-15T16:03:51;13.10;99.90
15554;DHT22;7878;44.632;10.942;2022-11-15T16:06:40;13.10;99.90
15554;DHT22;7878;44.632;10.942;2022-11-15T16:09:15;13.10;99.90
15554;DHT22;7878;44.632;10.942;2022-11-15T16:11:43;13.10;99.90
15554;DHT22;7878;44.632;10.942;2022-11-15T16:14:09;13.10;99.90
15554;DHT22;7878;44.632;10.942;2022-11-15T16:16:35;13.10;99.90
15554;DHT22;7878;44.632;10.942;2022-11-15T16:19:01;13.10;99.90
15554;DHT22;7878;44.632;10.942;2022-11-15T16:21:27;13.10;99.90
15554;DHT22;7878;44.632;10.942;2022-11-15T16:23:53;13.10;99.90
15554;DHT22;7878;44.632;10.942;2022-11-15T16:26:26;13.10;99.90
15554;DHT22;7878;44.632;10.942;2022-11-15T16:28:52;13.10;99.90
15554;DHT22;7878;44.632;10.942;2022-11-15T16:31:18;13.10;99.90
15554;DHT22;7878;44.632;10.942;2022-11-15T16:33:46;13.10;99.90
15554;DHT22;7878;44.632;10.942;2022-11-15T16:38:45;13.10;99.90
15554;DHT22;7878;44.632;10.942;2022-11-15T16:41:11;13.10;99.90
15554;DHT22;7878;44.632;10.942;2022-11-15T16:43:37;13.10;99.90
15554;DHT22;7878;44.632;10.942;2022-11-15T16:46:12;13.10;99.90
15554;DHT22;7878;44.632;10.942;2022-11-15T16:48:39;13.10;99.90
15554;DHT22;7878;44.632;10.942;2022-11-15T16:51:04;13.10;99.90
15554;DHT22;7878;44.632;10.942;2022-11-15T16:53:30;13.00;99.90
15554;DHT22;7878;44.632;10.942;2022-11-15T16:55:56;13.00;99.90
15554;DHT22;7878;44.632;10.942;2022-11-15T16:58:22;13.00;99.90
15554;DHT22;7878;44.632;10.942;2022-11-15T17:00:52;13.00;99.90
15554;DHT22;7878;44.632;10.942;2022-11-15T17:03:18;13.00;99.90
15554;DHT22;7878;44.632;10.942;2022-11-15T17:05:44;13.00;99.90
15554;DHT22;7878;44.632;10.942;2022-11-15T17:08:10;13.00;99.90
15554;DHT22;7878;44.632;10.942;2022-11-15T17:10:38;13.10;99.90
15554;DHT22;7878;44.632;10.942;2022-11-15T17:13:07;13.10;99.90
15554;DHT22;7878;44.632;10.942;2022-11-15T17:15:32;13.00;99.90
15554;DHT22;7878;44.632;10.942;2022-11-15T17:17:58;13.00;99.90
15554;DHT22;7878;44.632;10.942;2022-11-15T17:20:25;13.10;99.90
15554;DHT22;7878;44.632;10.942;2022-11-15T17:22:51;13.10;99.90
15554;DHT22;7878;44.632;10.942;2022-11-15T17:25:17;13.10;99.90
15554;DHT22;7878;44.632;10.942;2022-11-15T17:27:43;13.10;99.90
15554;DHT22;7878;44.632;10.942;2022-11-15T17:30:11;13.10;99.90
15554;DHT22;7878;44.632;10.942;2022-11-15T17:32:37;13.10;99.90
15554;DHT22;7878;44.632;10.942;2022-11-15T17:35:04;13.10;99.90
15554;DHT22;7878;44.632;10.942;2022-11-15T17:37:32;13.10;99.90
15554;DHT22;7878;44.632;10.942;2022-11-15T17:39:58;13.10;99.90
15554;DHT22;7878;44.632;10.942;2022-11-15T17:42:24;13.10;99.90
15554;DHT22;7878;44.632;10.942;2022-11-15T17:44:49;13.10;99.90
15554;DHT22;7878;44.632;10.942;2022-11-15T17:47:15;13.10;99.90
15554;DHT22;7878;44.632;10.942;2022-11-15T17:49:40;13.10;99.90
15554;DHT22;7878;44.632;10.942;2022-11-15T17:52:06;13.10;99.90
15554;DHT22;7878;44.632;10.942;2022-11-15T17:54:32;13.00;99.90